createdAt,value
2022-09-15T00:02:19.922Z,99946.84
2022-09-15T00:04:46.398Z,99949.25
2022-09-15T00:07:12.761Z,99954.94
2022-09-15T00:09:39.066Z,99946.50
2022-09-15T00:12:05.534Z,99950.91
2022-09-15T00:14:31.847Z,99946.13
2022-09-15T00:16:58.211Z,99948.53
2022-09-15T00:19:24.570Z,99942.50
2022-09-15T00:21:50.889Z,99942.91
2022-09-15T00:24:17.203Z,99941.31
2022-09-15T00:26:44.196Z,99939.72
2022-09-15T00:29:11.321Z,99940.50
2022-09-15T00:31:38.353Z,99937.31
2022-09-15T00:34:06.992Z,99941.72
2022-09-15T00:36:33.280Z,99940.50
2022-09-15T00:38:59.644Z,99937.69
2022-09-15T00:41:26.002Z,99945.72
2022-09-15T00:43:57.142Z,99943.31
2022-09-15T00:46:27.442Z,99943.69
2022-09-15T00:49:08.685Z,99938.91
2022-09-15T00:51:47.008Z,99941.69
2022-09-15T00:54:28.520Z,99938.47
2022-09-15T00:56:58.612Z,99941.31
2022-09-15T00:59:27.483Z,99939.28
2022-09-15T01:02:05.710Z,99934.47
2022-09-15T01:04:32.133Z,99942.91
2022-09-15T01:07:03.450Z,99943.69
2022-09-15T01:09:38.470Z,99938.91
2022-09-15T01:12:05.077Z,99934.06
2022-09-15T01:14:31.376Z,99932.44
2022-09-15T01:17:08.256Z,99934.09
2022-09-15T01:20:00.597Z,99936.53
2022-09-15T01:23:03.880Z,99934.09
2022-09-15T01:26:04.018Z,99930.91
2022-09-15T01:29:06.206Z,99921.66
2022-09-15T01:32:33.165Z,99926.50
2022-09-15T01:35:22.730Z,99920.44
2022-09-15T01:37:58.270Z,99930.50
2022-09-15T01:40:29.671Z,99927.28
2022-09-15T01:42:58.341Z,99934.53
2022-09-15T01:45:30.415Z,99932.91
2022-09-15T01:47:59.547Z,99941.75
2022-09-15T01:50:34.003Z,99945.78
2022-09-15T01:53:03.899Z,99942.56
2022-09-15T01:55:44.199Z,99946.63
2022-09-15T01:58:10.635Z,99945.41
2022-09-15T02:00:42.714Z,99941.81
2022-09-15T02:03:21.332Z,99943.41
2022-09-15T02:06:01.868Z,99941.00
2022-09-15T02:08:30.914Z,99939.84
2022-09-15T02:11:09.572Z,99940.63
2022-09-15T02:13:45.669Z,99940.22
2022-09-15T02:16:19.845Z,99944.25
2022-09-15T02:19:17.608Z,99938.25
2022-09-15T02:22:13.237Z,99939.47
2022-09-15T02:24:51.164Z,99941.06
2022-09-15T02:27:24.052Z,99941.47
2022-09-15T02:29:52.341Z,99947.47
2022-09-15T02:32:23.122Z,99945.88
2022-09-15T02:34:53.205Z,99939.47
2022-09-15T02:37:22.875Z,99949.91
2022-09-15T02:39:57.786Z,99947.47
2022-09-15T02:42:26.148Z,99943.88
2022-09-15T02:44:52.647Z,99947.88
2022-09-15T02:47:19.412Z,99945.88
2022-09-15T02:49:45.792Z,99941.06
2022-09-15T02:52:12.525Z,99945.09
2022-09-15T02:54:38.819Z,99946.69
2022-09-15T02:57:05.474Z,99946.69
2022-09-15T02:59:51.725Z,99949.06
2022-09-15T03:02:20.130Z,99953.09
2022-09-15T03:04:47.364Z,99952.28
2022-09-15T03:07:13.747Z,99949.88
2022-09-15T03:09:41.453Z,99952.25
2022-09-15T03:12:07.851Z,99952.69
2022-09-15T03:14:35.324Z,99960.69
2022-09-15T03:17:02.780Z,99952.25
2022-09-15T03:19:29.083Z,99961.06
2022-09-15T03:21:55.385Z,99953.47
2022-09-15T03:24:22.913Z,99956.66
2022-09-15T03:26:49.706Z,99961.06
2022-09-15T03:29:16.042Z,99968.28
2022-09-15T03:31:42.435Z,99964.28
2022-09-15T03:34:08.739Z,99957.47
2022-09-15T03:36:35.107Z,99958.25
2022-09-15T03:39:01.824Z,99956.25
2022-09-15T03:41:29.164Z,99961.44
2022-09-15T03:43:56.250Z,99953.81
2022-09-15T03:46:22.535Z,99958.25
2022-09-15T03:48:48.855Z,99952.63
2022-09-15T03:51:15.170Z,99955.44
2022-09-15T03:53:41.999Z,99949.03
2022-09-15T03:56:20.119Z,99943.78
2022-09-15T03:58:46.442Z,99945.38
2022-09-15T04:01:13.421Z,99950.59
2022-09-15T04:03:45.277Z,99949.41
2022-09-15T04:06:15.071Z,99952.19
2022-09-15T04:08:41.959Z,99950.59
2022-09-15T04:11:10.527Z,99949.38
2022-09-15T04:13:39.053Z,99946.56
2022-09-15T04:16:06.575Z,99947.78
2022-09-15T04:18:35.816Z,99942.50
2022-09-15T04:21:05.766Z,99948.53
2022-09-15T04:23:32.684Z,99948.13
2022-09-15T04:26:01.015Z,99950.16
2022-09-15T04:28:28.810Z,99949.75
2022-09-15T04:31:04.329Z,99947.72
2022-09-15T04:33:30.658Z,99956.16
2022-09-15T04:36:10.157Z,99956.16
2022-09-15T04:38:37.018Z,99958.94
2022-09-15T04:41:04.592Z,99952.50
2022-09-15T04:43:31.672Z,99964.16
2022-09-15T04:45:57.959Z,99960.13
2022-09-15T04:48:24.803Z,99961.72
2022-09-15T04:50:51.764Z,99957.28
2022-09-15T04:53:18.191Z,99956.47
2022-09-15T04:55:44.645Z,99955.66
2022-09-15T04:58:11.472Z,99959.28
2022-09-15T05:00:43.525Z,99962.50
2022-09-15T05:03:11.396Z,99961.28
2022-09-15T05:05:38.198Z,99962.06
2022-09-15T05:08:04.553Z,99966.91
2022-09-15T05:10:30.902Z,99964.09
2022-09-15T05:12:57.217Z,99965.31
2022-09-15T05:15:24.104Z,99966.09
2022-09-15T05:17:50.505Z,99964.09
2022-09-15T05:20:17.557Z,99973.34
2022-09-15T05:22:45.343Z,99976.94
2022-09-15T05:25:11.686Z,99977.31
2022-09-15T05:27:43.956Z,99976.53
2022-09-15T05:30:35.985Z,99972.91
2022-09-15T05:32:56.853Z,99979.69
2022-09-15T05:35:23.546Z,99985.31
2022-09-15T05:37:50.267Z,99982.13
2022-09-15T05:40:16.746Z,99976.50
2022-09-15T05:42:43.063Z,99973.69
2022-09-15T05:45:09.997Z,99976.88
2022-09-15T05:47:36.293Z,99984.09
2022-09-15T05:50:02.608Z,99980.09
2022-09-15T05:52:28.997Z,99983.28
2022-09-15T05:54:58.950Z,99981.28
2022-09-15T05:57:25.741Z,99981.69
2022-09-15T05:59:52.043Z,99981.69
2022-09-15T06:02:18.402Z,99977.59
2022-09-15T06:04:44.763Z,99984.84
2022-09-15T06:07:11.181Z,99983.22
2022-09-15T06:09:38.006Z,99987.25
2022-09-15T06:12:04.840Z,99993.25
2022-09-15T06:14:31.129Z,99995.25
2022-09-15T06:16:57.413Z,99998.84
2022-09-15T06:23:10.585Z,99999.19
2022-09-15T06:25:36.962Z,100004.44
2022-09-15T06:28:03.263Z,100014.47
2022-09-15T06:30:29.610Z,100015.28
2022-09-15T06:32:55.918Z,100004.41
2022-09-15T06:35:22.229Z,100003.19
2022-09-15T06:37:48.530Z,100011.22
2022-09-15T06:40:14.911Z,100013.63
2022-09-15T06:42:41.286Z,100022.06
2022-09-15T06:45:08.088Z,100020.03
2022-09-15T06:47:34.397Z,100016.81
2022-09-15T06:50:01.091Z,100021.59
2022-09-15T06:52:27.569Z,100027.66
2022-09-15T06:54:53.864Z,100036.03
2022-09-15T06:57:20.310Z,100035.22
2022-09-15T06:59:46.654Z,100032.78
2022-09-15T07:02:13.051Z,100045.25
2022-09-15T07:04:39.506Z,100048.44
2022-09-15T07:07:05.783Z,100047.25
2022-09-15T07:09:32.117Z,100048.84
2022-09-15T07:11:58.690Z,100049.66
2022-09-15T07:14:24.992Z,100046.41
2022-09-15T07:16:51.358Z,100052.44
2022-09-15T07:19:17.763Z,100054.03
2022-09-15T07:21:44.066Z,100054.41
2022-09-15T07:24:10.567Z,100060.03
2022-09-15T07:26:37.700Z,100053.59
2022-09-15T07:29:06.777Z,100052.34
2022-09-15T07:31:35.305Z,100047.06
2022-09-15T07:34:02.147Z,100059.94
2022-09-15T07:36:29.207Z,100062.28
2022-09-15T07:38:55.538Z,100060.69
2022-09-15T07:41:27.657Z,100063.06
2022-09-15T07:43:56.212Z,100054.59
2022-09-15T07:46:23.395Z,100054.94
2022-09-15T07:48:53.313Z,100061.31
2022-09-15T07:51:20.045Z,100064.53
2022-09-15T07:53:47.919Z,100064.09
2022-09-15T07:56:16.045Z,100065.22
2022-09-15T07:58:42.344Z,100070.03
2022-09-15T08:01:16.704Z,100078.44
2022-09-15T08:03:46.153Z,100065.53
2022-09-15T08:06:13.453Z,100074.38
2022-09-15T08:08:40.906Z,100069.13
2022-09-15T08:11:17.678Z,100071.94
2022-09-15T08:13:49.545Z,100084.00
2022-09-15T08:16:19.462Z,100086.84
2022-09-15T08:18:46.263Z,100090.81
2022-09-15T08:21:15.982Z,100092.03
2022-09-15T08:23:43.386Z,100083.56
2022-09-15T08:26:14.432Z,100085.56
2022-09-15T08:28:41.831Z,100088.75
2022-09-15T08:31:11.258Z,100098.00
2022-09-15T08:33:41.838Z,100105.63
2022-09-15T08:36:11.421Z,100101.97
2022-09-15T08:38:43.664Z,100098.69
2022-09-15T08:41:40.009Z,100106.34
2022-09-15T08:44:55.373Z,100103.47
2022-09-15T08:47:35.460Z,100110.22
2022-09-15T08:50:11.639Z,100123.47
2022-09-15T08:52:45.769Z,100126.69
2022-09-15T08:55:26.215Z,100129.44
2022-09-15T08:57:53.775Z,100128.22
2022-09-15T09:00:20.215Z,100122.53
2022-09-15T09:03:06.559Z,100125.75
2022-09-15T09:05:47.522Z,100123.63
2022-09-15T09:08:30.559Z,100116.66
2022-09-15T09:11:20.146Z,100123.81
2022-09-15T09:13:56.998Z,100123.72
2022-09-15T09:16:54.865Z,100125.75
2022-09-15T09:19:32.055Z,100134.56
2022-09-15T09:22:23.607Z,100135.38
2022-09-15T09:24:52.977Z,100130.50
2022-09-15T09:27:24.197Z,100126.06
2022-09-15T09:30:18.383Z,100128.91
2022-09-15T09:33:00.328Z,100138.50
2022-09-15T09:35:38.520Z,100141.72
2022-09-15T09:38:05.016Z,100139.22
2022-09-15T09:40:32.695Z,100140.38
2022-09-15T09:43:00.646Z,100135.91
2022-09-15T09:45:27.051Z,100135.06
2022-09-15T09:48:01.647Z,100135.44
2022-09-15T09:50:33.143Z,100136.19
2022-09-15T09:52:59.665Z,100140.94
2022-09-15T09:55:27.737Z,100138.03
2022-09-15T09:58:11.126Z,100146.78
2022-09-15T10:00:40.280Z,100145.44
2022-09-15T10:03:30.623Z,100136.47
2022-09-15T10:06:06.379Z,100123.00
2022-09-15T10:08:35.049Z,100131.38
2022-09-15T10:11:05.820Z,100135.38
2022-09-15T10:13:35.541Z,100140.16
2022-09-15T10:16:06.165Z,100134.50
2022-09-15T10:18:38.721Z,100143.38
2022-09-15T10:21:08.172Z,100139.25
2022-09-15T10:23:34.697Z,100137.59
2022-09-15T10:26:16.296Z,100142.44
2022-09-15T10:28:43.813Z,100135.50
2022-09-15T10:31:13.476Z,100137.91
2022-09-15T10:33:50.640Z,100136.69
2022-09-15T10:36:28.470Z,100142.03
2022-09-15T10:39:14.377Z,100134.84
2022-09-15T10:41:56.692Z,100134.44
2022-09-15T10:44:35.037Z,100138.56
2022-09-15T10:47:43.172Z,100147.19
2022-09-15T10:50:15.613Z,100147.97
2022-09-15T10:53:02.930Z,100146.47
2022-09-15T10:55:52.740Z,100153.06
2022-09-15T10:58:46.906Z,100145.91
2022-09-15T11:01:37.730Z,100157.38
2022-09-15T11:04:19.161Z,100157.88
2022-09-15T11:07:21.793Z,100159.59
2022-09-15T11:10:02.768Z,100160.06
2022-09-15T11:12:55.092Z,100165.41
2022-09-15T11:15:40.184Z,100155.31
2022-09-15T11:18:21.128Z,100150.94
2022-09-15T11:21:11.812Z,100145.81
2022-09-15T11:23:52.662Z,100144.63
2022-09-15T11:26:38.272Z,100147.03
2022-09-15T11:29:18.390Z,100136.94
2022-09-15T11:31:48.446Z,100147.84
2022-09-15T11:34:35.914Z,100151.88
2022-09-15T11:37:21.085Z,100145.34
2022-09-15T11:39:50.991Z,100149.66
2022-09-15T11:42:25.018Z,100150.84
2022-09-15T11:44:51.668Z,100140.66
2022-09-15T11:47:40.161Z,100155.94
2022-09-15T11:50:29.162Z,100147.78
2022-09-15T11:53:16.582Z,100147.63
2022-09-15T11:55:55.859Z,100145.13
2022-09-15T11:58:53.879Z,100151.88
2022-09-15T12:01:27.571Z,100156.56
2022-09-15T12:04:02.377Z,100151.66
2022-09-15T12:06:46.289Z,100146.44
2022-09-15T12:09:17.908Z,100144.75
2022-09-15T12:11:47.561Z,100145.59
2022-09-15T12:14:17.707Z,100141.94
2022-09-15T12:16:44.894Z,100137.91
2022-09-15T12:19:18.842Z,100133.84
2022-09-15T12:22:00.714Z,100134.13
2022-09-15T12:24:37.802Z,100144.13
2022-09-15T12:27:04.721Z,100142.34
2022-09-15T12:29:41.189Z,100144.66
2022-09-15T12:32:19.910Z,100144.19
2022-09-15T12:35:17.571Z,100151.75
2022-09-15T12:37:58.116Z,100135.06
2022-09-15T12:40:35.679Z,100144.75
2022-09-15T12:43:11.278Z,100143.88
2022-09-15T12:45:38.839Z,100139.31
2022-09-15T12:48:19.884Z,100139.66
2022-09-15T12:51:07.034Z,100144.47
2022-09-15T12:53:50.240Z,100146.88
2022-09-15T12:56:26.005Z,100145.34
2022-09-15T12:58:53.727Z,100141.34
2022-09-15T13:01:23.066Z,100143.06
2022-09-15T13:03:49.498Z,100143.56
2022-09-15T13:06:29.007Z,100148.63
2022-09-15T13:09:01.488Z,100142.63
2022-09-15T13:11:37.403Z,100148.34
2022-09-15T13:14:03.989Z,100149.09
2022-09-15T13:16:32.642Z,100148.69
2022-09-15T13:19:20.684Z,100141.41
2022-09-15T13:22:00.246Z,100145.78
2022-09-15T13:24:41.619Z,100146.97
2022-09-15T13:27:08.911Z,100142.03
2022-09-15T13:29:45.575Z,100136.38
2022-09-15T13:32:20.929Z,100127.03
2022-09-15T13:35:16.006Z,100124.47
2022-09-15T13:38:13.555Z,100130.03
2022-09-15T13:41:03.546Z,100118.63
2022-09-15T13:43:59.686Z,100123.81
2022-09-15T13:46:53.345Z,100118.84
2022-09-15T13:49:28.715Z,100116.31
2022-09-15T13:52:18.391Z,100117.91
2022-09-15T13:55:07.660Z,100117.03
2022-09-15T14:00:45.315Z,100093.56
2022-09-15T14:03:17.251Z,100106.06
2022-09-15T14:05:45.309Z,100103.59
2022-09-15T14:08:17.447Z,100095.53
2022-09-15T14:10:56.538Z,100094.75
2022-09-15T14:13:26.564Z,100095.09
2022-09-15T14:15:57.771Z,100092.72
2022-09-15T14:18:24.394Z,100087.84
2022-09-15T14:21:05.812Z,100090.75
2022-09-15T14:23:32.782Z,100084.66
2022-09-15T14:26:01.267Z,100091.53
2022-09-15T14:28:33.671Z,100087.13
2022-09-15T14:31:00.757Z,100083.47
2022-09-15T14:33:39.150Z,100088.78
2022-09-15T14:36:24.232Z,100078.56
2022-09-15T14:39:08.718Z,100086.59
2022-09-15T14:41:36.505Z,100086.53
2022-09-15T14:45:55.118Z,100087.84
2022-09-15T14:47:20.173Z,100089.09
2022-09-15T14:49:46.950Z,100101.16
2022-09-15T14:52:27.085Z,100100.41
2022-09-15T14:55:00.511Z,100101.16
2022-09-15T14:57:31.499Z,100103.19
2022-09-15T15:00:03.423Z,100102.81
2022-09-15T15:02:50.112Z,100108.97
2022-09-15T15:05:24.688Z,100111.81
2022-09-15T15:07:51.987Z,100110.22
2022-09-15T15:10:25.858Z,100117.63
2022-09-15T15:13:15.502Z,100115.22
2022-09-15T15:15:42.554Z,100115.66
2022-09-15T15:18:38.047Z,100119.50
2022-09-15T15:21:05.408Z,100115.06
2022-09-15T15:23:32.644Z,100119.63
2022-09-15T15:26:35.548Z,100127.53
2022-09-15T15:29:01.944Z,100121.50
2022-09-15T15:31:29.558Z,100116.34
2022-09-15T15:34:05.131Z,100134.59
2022-09-15T15:36:34.125Z,100131.81
2022-09-15T15:39:04.570Z,100123.38
2022-09-15T15:41:38.585Z,100126.69
2022-09-15T15:44:22.342Z,100129.97
2022-09-15T15:47:00.094Z,100129.19
2022-09-15T15:49:29.163Z,100135.69
2022-09-15T15:51:56.956Z,100143.44
2022-09-15T15:54:24.239Z,100128.53
2022-09-15T15:56:51.762Z,100136.66
2022-09-15T15:59:19.006Z,100135.47
2022-09-15T16:01:50.891Z,100144.84
2022-09-15T16:04:17.278Z,100142.41
2022-09-15T16:06:44.839Z,100140.03
2022-09-15T16:09:14.592Z,100132.78
2022-09-15T16:11:42.581Z,100138.44
2022-09-15T16:14:12.056Z,100140.47
2022-09-15T16:16:38.397Z,100134.81
2022-09-15T16:19:04.735Z,100136.84
2022-09-15T16:21:39.401Z,100133.28
2022-09-15T16:24:11.057Z,100134.88
2022-09-15T16:26:39.236Z,100130.06
2022-09-15T16:29:06.116Z,100130.94
2022-09-15T16:31:33.596Z,100133.38
2022-09-15T16:34:00.038Z,100126.56
2022-09-15T16:36:26.999Z,100128.19
2022-09-15T16:38:53.650Z,100129.06
2022-09-15T16:41:25.639Z,100140.44
2022-09-15T16:43:58.314Z,100128.31
2022-09-15T16:46:25.081Z,100125.53
2022-09-15T16:48:51.631Z,100130.84
2022-09-15T16:51:28.849Z,100117.53
2022-09-15T16:53:57.078Z,100123.59
2022-09-15T16:56:23.376Z,100129.25
2022-09-15T16:58:49.725Z,100128.88
2022-09-15T17:01:21.142Z,100130.53
2022-09-15T17:03:48.405Z,100129.31
2022-09-15T17:06:17.619Z,100142.25
2022-09-15T17:08:44.420Z,100139.06
2022-09-15T17:11:16.533Z,100142.31
2022-09-15T17:13:44.154Z,100141.53
2022-09-15T17:16:12.315Z,100152.44
2022-09-15T17:18:38.624Z,100148.81
2022-09-15T17:21:05.026Z,100153.31
2022-09-15T17:23:35.084Z,100151.31
2022-09-15T17:26:05.134Z,100157.81
2022-09-15T17:28:33.736Z,100154.63
2022-09-15T17:31:01.143Z,100149.00
2022-09-15T17:33:29.174Z,100139.38
2022-09-15T17:35:56.061Z,100146.28
2022-09-15T17:38:22.829Z,100143.13
2022-09-15T17:40:50.857Z,100141.97
2022-09-15T17:43:22.528Z,100142.44
2022-09-15T17:45:49.915Z,100142.88
2022-09-15T17:48:16.723Z,100154.66
2022-09-15T17:50:45.002Z,100145.41
2022-09-15T17:53:22.762Z,100151.97
2022-09-15T17:55:50.529Z,100150.75
2022-09-15T17:58:17.962Z,100151.59
2022-09-15T18:00:45.240Z,100150.81
2022-09-15T18:03:23.225Z,100155.31
2022-09-15T18:05:50.665Z,100157.34
2022-09-15T18:08:17.354Z,100161.00
2022-09-15T18:10:44.221Z,100158.22
2022-09-15T18:13:16.213Z,100164.69
2022-09-15T18:15:43.038Z,100165.13
2022-09-15T18:18:14.863Z,100164.72
2022-09-15T18:20:41.306Z,100167.97
2022-09-15T18:23:12.735Z,100163.97
2022-09-15T18:25:39.104Z,100170.81
2022-09-15T18:28:05.567Z,100168.44
2022-09-15T18:30:37.045Z,100176.53
2022-09-15T18:33:03.742Z,100176.53
2022-09-15T18:35:30.195Z,100197.47
2022-09-15T18:37:59.482Z,100207.97
2022-09-15T18:40:27.342Z,100216.84
2022-09-15T18:42:54.140Z,100206.78
2022-09-15T18:45:20.481Z,100198.69
2022-09-15T18:47:49.010Z,100207.59
2022-09-15T18:50:16.507Z,100206.38
2022-09-15T18:52:42.899Z,100200.31
2022-09-15T18:55:13.019Z,100208.03
2022-09-15T18:57:41.472Z,100206.44
2022-09-15T19:00:11.842Z,100214.56
2022-09-15T19:02:38.201Z,100209.34
2022-09-15T19:05:05.572Z,100212.22
2022-09-15T19:07:32.000Z,100221.91
2022-09-15T19:09:58.886Z,100222.34
2022-09-15T19:12:25.179Z,100221.16
2022-09-15T19:14:51.512Z,100216.34
2022-09-15T19:17:17.828Z,100219.56
2022-09-15T19:19:46.211Z,100217.97
2022-09-15T19:22:12.564Z,100217.59
2022-09-15T19:24:38.882Z,100213.97
2022-09-15T19:27:06.924Z,100216.41
2022-09-15T19:29:35.626Z,100224.06
2022-09-15T19:32:03.061Z,100226.47
2022-09-15T19:34:29.394Z,100228.84
2022-09-15T19:36:55.766Z,100220.81
2022-09-15T19:39:22.465Z,100223.63
2022-09-15T19:41:48.966Z,100226.88
2022-09-15T19:44:16.041Z,100227.66
2022-09-15T19:46:42.469Z,100226.88
2022-09-15T19:49:09.794Z,100228.88
2022-09-15T19:51:36.245Z,100234.53
2022-09-15T19:54:02.636Z,100245.81
2022-09-15T19:56:29.563Z,100238.97
2022-09-15T19:58:57.792Z,100236.56
2022-09-15T20:01:26.308Z,100243.00
2022-09-15T20:03:54.507Z,100240.59
2022-09-15T20:06:20.805Z,100241.78
2022-09-15T20:08:47.694Z,100243.00
2022-09-15T20:11:15.457Z,100248.25
2022-09-15T20:13:43.440Z,100250.28
2022-09-15T20:16:16.357Z,100252.28
2022-09-15T20:18:42.932Z,100261.53
2022-09-15T20:21:12.368Z,100253.91
2022-09-15T20:23:48.533Z,100258.31
2022-09-15T20:26:17.102Z,100259.53
2022-09-15T20:28:43.788Z,100259.53
2022-09-15T20:31:13.710Z,100255.09
2022-09-15T20:33:42.070Z,100254.69
2022-09-15T20:36:11.273Z,100261.56
2022-09-15T20:38:38.981Z,100268.81
2022-09-15T20:41:08.131Z,100271.25
2022-09-15T20:43:39.703Z,100264.38
2022-09-15T20:46:08.789Z,100270.84
2022-09-15T20:48:38.498Z,100272.47
2022-09-15T20:51:17.766Z,100276.53
2022-09-15T20:53:46.463Z,100280.94
2022-09-15T20:56:14.466Z,100280.94
2022-09-15T20:58:41.509Z,100277.75
2022-09-15T21:01:10.472Z,100280.59
2022-09-15T21:03:39.012Z,100281.38
2022-09-15T21:06:08.207Z,100270.53
2022-09-15T21:08:36.286Z,100275.81
2022-09-15T21:11:04.949Z,100274.59
2022-09-15T21:13:32.145Z,100274.59
2022-09-15T21:16:02.112Z,100272.59
2022-09-15T21:18:34.531Z,100277.81
2022-09-15T21:21:03.403Z,100281.47
2022-09-15T21:23:37.741Z,100289.16
2022-09-15T21:26:07.096Z,100285.91
2022-09-15T21:28:33.876Z,100282.28
2022-09-15T21:31:08.349Z,100281.91
2022-09-15T21:33:36.118Z,100288.34
2022-09-15T21:36:07.121Z,100289.56
2022-09-15T21:38:38.053Z,100292.00
2022-09-15T21:41:06.024Z,100283.94
2022-09-15T21:43:35.780Z,100286.00
2022-09-15T21:46:08.344Z,100290.41
2022-09-15T21:48:35.415Z,100286.00
2022-09-15T21:51:02.974Z,100289.63
2022-09-15T21:53:29.590Z,100295.66
2022-09-15T21:55:56.576Z,100289.66
2022-09-15T21:58:26.149Z,100286.41
2022-09-15T22:00:53.055Z,100296.09
2022-09-15T22:03:19.457Z,100294.47
2022-09-15T22:05:47.471Z,100297.69
2022-09-15T22:08:16.117Z,100296.47
2022-09-15T22:10:43.969Z,100296.47
2022-09-15T22:13:11.348Z,100300.50
2022-09-15T22:15:37.911Z,100293.25
2022-09-15T22:18:04.496Z,100298.47
2022-09-15T22:20:30.962Z,100300.50
2022-09-15T22:23:00.557Z,100298.06
2022-09-15T22:25:27.014Z,100299.28
2022-09-15T22:27:53.317Z,100304.13
2022-09-15T22:30:19.609Z,100306.94
2022-09-15T22:32:45.938Z,100306.13
2022-09-15T22:35:12.294Z,100304.53
2022-09-15T22:37:38.601Z,100306.53
2022-09-15T22:40:05.416Z,100309.75
2022-09-15T22:42:31.746Z,100304.53
2022-09-15T22:44:58.025Z,100302.94
2022-09-15T22:47:24.308Z,100307.75
2022-09-15T22:49:50.592Z,100313.38
2022-09-15T22:52:16.943Z,100299.69
2022-09-15T22:54:43.234Z,100301.72
2022-09-15T22:57:09.566Z,100296.50
2022-09-15T22:59:35.850Z,100294.47
2022-09-15T23:02:02.232Z,100293.28
2022-09-15T23:04:28.722Z,100305.34
2022-09-15T23:06:55.081Z,100300.50
2022-09-15T23:09:21.391Z,100295.72
2022-09-15T23:11:47.691Z,100294.91
2022-09-15T23:14:16.057Z,100302.56
2022-09-15T23:16:42.959Z,100304.53
2022-09-15T23:19:12.094Z,100306.16
2022-09-15T23:21:38.413Z,100296.13
2022-09-15T23:24:04.994Z,100296.50
2022-09-15T23:26:31.371Z,100299.72
2022-09-15T23:28:57.657Z,100297.72
2022-09-15T23:31:24.094Z,100294.50
2022-09-15T23:33:50.534Z,100296.53
2022-09-15T23:36:19.410Z,100291.69
2022-09-15T23:38:47.117Z,100288.88
2022-09-15T23:43:40.630Z,100284.03
2022-09-15T23:46:07.729Z,100284.47
2022-09-15T23:48:34.055Z,100298.13
2022-09-15T23:51:00.635Z,100288.91
2022-09-15T23:53:27.118Z,100293.69
2022-09-15T23:55:53.410Z,100287.25
2022-09-15T23:58:19.723Z,100286.88
